sensor_id;sensor_type;location;lat;lon;timestamp;P1;durP1;ratioP1;P2;durP2;ratioP2
36321;SDS011;23564;48.290;11.460;2024-01-16T00:00:33;8.80;;;2.75;;
36321;SDS011;23564;48.290;11.460;2024-01-16T00:02:59;4.65;;;2.08;;
36321;SDS011;23564;48.290;11.460;2024-01-16T00:05:25;4.78;;;2.58;;
36321;SDS011;23564;48.290;11.460;2024-01-16T00:07:51;4.38;;;2.35;;
36321;SDS011;23564;48.290;11.460;2024-01-16T00:10:16;3.88;;;2.47;;
36321;SDS011;23564;48.290;11.460;2024-01-16T00:12:42;5.20;;;2.25;;
36321;SDS011;23564;48.290;11.460;2024-01-16T00:15:08;5.53;;;2.40;;
36321;SDS011;23564;48.290;11.460;2024-01-16T00:17:34;4.45;;;2.25;;
36321;SDS011;23564;48.290;11.460;2024-01-16T00:20:00;4.35;;;2.17;;
36321;SDS011;23564;48.290;11.460;2024-01-16T00:22:26;4.15;;;2.63;;
36321;SDS011;23564;48.290;11.460;2024-01-16T00:24:52;3.35;;;2.00;;
36321;SDS011;23564;48.290;11.460;2024-01-16T00:27:18;4.25;;;2.60;;
36321;SDS011;23564;48.290;11.460;2024-01-16T00:29:43;6.70;;;2.47;;
36321;SDS011;23564;48.290;11.460;2024-01-16T00:32:09;6.35;;;2.25;;
36321;SDS011;23564;48.290;11.460;2024-01-16T00:34:34;3.97;;;2.28;;
36321;SDS011;23564;48.290;11.460;2024-01-16T00:37:00;6.07;;;3.28;;
36321;SDS011;23564;48.290;11.460;2024-01-16T00:39:25;5.72;;;2.35;;
36321;SDS011;23564;48.290;11.460;2024-01-16T00:41:51;4.47;;;2.67;;
36321;SDS011;23564;48.290;11.460;2024-01-16T00:44:16;6.18;;;3.00;;
36321;SDS011;23564;48.290;11.460;2024-01-16T00:46:42;4.43;;;2.63;;
36321;SDS011;23564;48.290;11.460;2024-01-16T00:49:07;7.53;;;2.95;;
36321;SDS011;23564;48.290;11.460;2024-01-16T00:51:33;4.40;;;2.60;;
36321;SDS011;23564;48.290;11.460;2024-01-16T00:53:59;6.55;;;2.90;;
36321;SDS011;23564;48.290;11.460;2024-01-16T00:56:24;7.03;;;2.65;;
36321;SDS011;23564;48.290;11.460;2024-01-16T00:58:52;4.78;;;2.47;;
36321;SDS011;23564;48.290;11.460;2024-01-16T01:01:19;5.70;;;2.92;;
36321;SDS011;23564;48.290;11.460;2024-01-16T01:03:45;6.38;;;2.65;;
36321;SDS011;23564;48.290;11.460;2024-01-16T01:06:11;6.03;;;2.45;;
36321;SDS011;23564;48.290;11.460;2024-01-16T01:08:36;5.10;;;2.70;;
36321;SDS011;23564;48.290;11.460;2024-01-16T01:11:02;7.43;;;2.83;;
36321;SDS011;23564;48.290;11.460;2024-01-16T01:13:28;4.72;;;2.83;;
36321;SDS011;23564;48.290;11.460;2024-01-16T01:15:53;5.20;;;2.88;;
36321;SDS011;23564;48.290;11.460;2024-01-16T01:18:19;6.05;;;2.65;;
36321;SDS011;23564;48.290;11.460;2024-01-16T01:20:45;5.47;;;2.90;;
36321;SDS011;23564;48.290;11.460;2024-01-16T01:23:10;5.85;;;3.00;;
36321;SDS011;23564;48.290;11.460;2024-01-16T01:25:36;6.68;;;2.95;;
36321;SDS011;23564;48.290;11.460;2024-01-16T01:28:01;11.95;;;3.20;;
36321;SDS011;23564;48.290;11.460;2024-01-16T01:30:27;4.22;;;2.70;;
36321;SDS011;23564;48.290;11.460;2024-01-16T01:32:53;6.32;;;2.83;;
36321;SDS011;23564;48.290;11.460;2024-01-16T01:35:18;6.85;;;3.00;;
36321;SDS011;23564;48.290;11.460;2024-01-16T01:37:47;5.50;;;2.63;;
36321;SDS011;23564;48.290;11.460;2024-01-16T01:40:12;5.55;;;2.30;;
36321;SDS011;23564;48.290;11.460;2024-01-16T01:42:40;5.95;;;2.67;;
36321;SDS011;23564;48.290;11.460;2024-01-16T01:45:07;6.68;;;2.58;;
36321;SDS011;23564;48.290;11.460;2024-01-16T01:47:36;6.90;;;2.92;;
36321;SDS011;23564;48.290;11.460;2024-01-16T01:50:03;3.85;;;2.38;;
36321;SDS011;23564;48.290;11.460;2024-01-16T01:52:30;4.32;;;2.33;;
36321;SDS011;23564;48.290;11.460;2024-01-16T01:54:56;5.95;;;2.83;;
36321;SDS011;23564;48.290;11.460;2024-01-16T01:57:23;4.43;;;2.17;;
36321;SDS011;23564;48.290;11.460;2024-01-16T01:59:49;7.65;;;3.03;;
36321;SDS011;23564;48.290;11.460;2024-01-16T02:02:15;5.82;;;2.63;;
36321;SDS011;23564;48.290;11.460;2024-01-16T02:04:42;5.55;;;2.55;;
36321;SDS011;23564;48.290;11.460;2024-01-16T02:07:09;5.03;;;2.55;;
36321;SDS011;23564;48.290;11.460;2024-01-16T02:09:35;5.10;;;2.67;;
36321;SDS011;23564;48.290;11.460;2024-01-16T02:12:01;5.65;;;2.15;;
36321;SDS011;23564;48.290;11.460;2024-01-16T02:14:26;5.05;;;2.70;;
36321;SDS011;23564;48.290;11.460;2024-01-16T02:16:52;6.60;;;2.85;;
36321;SDS011;23564;48.290;11.460;2024-01-16T02:19:18;5.97;;;2.90;;
36321;SDS011;23564;48.290;11.460;2024-01-16T02:21:48;6.60;;;3.22;;
36321;SDS011;23564;48.290;11.460;2024-01-16T02:24:14;6.30;;;3.17;;
36321;SDS011;23564;48.290;11.460;2024-01-16T02:26:40;6.30;;;2.75;;
36321;SDS011;23564;48.290;11.460;2024-01-16T02:32:27;5.78;;;2.65;;
36321;SDS011;23564;48.290;11.460;2024-01-16T02:34:53;5.20;;;2.97;;
36321;SDS011;23564;48.290;11.460;2024-01-16T02:37:18;3.80;;;2.33;;
36321;SDS011;23564;48.290;11.460;2024-01-16T02:39:44;4.97;;;2.60;;
36321;SDS011;23564;48.290;11.460;2024-01-16T02:42:10;6.78;;;2.83;;
36321;SDS011;23564;48.290;11.460;2024-01-16T02:44:35;5.78;;;2.70;;
36321;SDS011;23564;48.290;11.460;2024-01-16T02:47:01;4.50;;;2.38;;
36321;SDS011;23564;48.290;11.460;2024-01-16T02:49:27;6.00;;;2.78;;
36321;SDS011;23564;48.290;11.460;2024-01-16T02:51:52;7.43;;;2.80;;
36321;SDS011;23564;48.290;11.460;2024-01-16T02:54:19;5.68;;;2.45;;
36321;SDS011;23564;48.290;11.460;2024-01-16T02:56:45;6.50;;;3.10;;
36321;SDS011;23564;48.290;11.460;2024-01-16T02:59:10;5.65;;;2.75;;
36321;SDS011;23564;48.290;11.460;2024-01-16T03:01:36;5.57;;;2.90;;
36321;SDS011;23564;48.290;11.460;2024-01-16T03:04:02;6.15;;;3.08;;
36321;SDS011;23564;48.290;11.460;2024-01-16T03:06:27;11.00;;;3.15;;
36321;SDS011;23564;48.290;11.460;2024-01-16T03:08:54;7.07;;;2.53;;
36321;SDS011;23564;48.290;11.460;2024-01-16T03:11:20;3.67;;;2.10;;
36321;SDS011;23564;48.290;11.460;2024-01-16T03:13:45;6.75;;;2.63;;
36321;SDS011;23564;48.290;11.460;2024-01-16T03:16:11;5.55;;;2.70;;
36321;SDS011;23564;48.290;11.460;2024-01-16T03:18:37;8.32;;;2.28;;
36321;SDS011;23564;48.290;11.460;2024-01-16T03:21:04;10.15;;;2.30;;
36321;SDS011;23564;48.290;11.460;2024-01-16T03:23:32;9.75;;;2.85;;
36321;SDS011;23564;48.290;11.460;2024-01-16T03:25:58;5.90;;;2.20;;
36321;SDS011;23564;48.290;11.460;2024-01-16T03:28:24;9.55;;;2.70;;
36321;SDS011;23564;48.290;11.460;2024-01-16T03:30:50;5.57;;;2.67;;
36321;SDS011;23564;48.290;11.460;2024-01-16T03:33:15;6.05;;;2.55;;
36321;SDS011;23564;48.290;11.460;2024-01-16T03:35:41;6.03;;;2.75;;
36321;SDS011;23564;48.290;11.460;2024-01-16T03:38:06;6.43;;;2.85;;
36321;SDS011;23564;48.290;11.460;2024-01-16T03:40:32;7.78;;;2.72;;
36321;SDS011;23564;48.290;11.460;2024-01-16T03:43:02;4.03;;;2.47;;
36321;SDS011;23564;48.290;11.460;2024-01-16T03:45:30;8.60;;;3.03;;
36321;SDS011;23564;48.290;11.460;2024-01-16T03:47:56;5.40;;;2.72;;
36321;SDS011;23564;48.290;11.460;2024-01-16T03:50:21;5.30;;;2.85;;
36321;SDS011;23564;48.290;11.460;2024-01-16T03:52:47;7.90;;;3.13;;
36321;SDS011;23564;48.290;11.460;2024-01-16T03:55:12;3.65;;;2.40;;
36321;SDS011;23564;48.290;11.460;2024-01-16T03:57:38;4.85;;;2.40;;
36321;SDS011;23564;48.290;11.460;2024-01-16T04:00:04;5.63;;;2.10;;
36321;SDS011;23564;48.290;11.460;2024-01-16T04:02:30;3.53;;;2.00;;
36321;SDS011;23564;48.290;11.460;2024-01-16T04:04:56;7.72;;;3.00;;
36321;SDS011;23564;48.290;11.460;2024-01-16T04:07:22;11.82;;;2.78;;
36321;SDS011;23564;48.290;11.460;2024-01-16T04:09:48;4.30;;;2.55;;
36321;SDS011;23564;48.290;11.460;2024-01-16T04:12:14;7.43;;;3.40;;
36321;SDS011;23564;48.290;11.460;2024-01-16T04:14:40;7.68;;;2.78;;
36321;SDS011;23564;48.290;11.460;2024-01-16T04:17:05;7.57;;;2.50;;
36321;SDS011;23564;48.290;11.460;2024-01-16T04:19:31;5.55;;;2.35;;
36321;SDS011;23564;48.290;11.460;2024-01-16T04:21:58;5.25;;;2.90;;
36321;SDS011;23564;48.290;11.460;2024-01-16T04:24:25;6.22;;;2.63;;
36321;SDS011;23564;48.290;11.460;2024-01-16T04:26:51;7.88;;;2.92;;
36321;SDS011;23564;48.290;11.460;2024-01-16T04:29:16;5.25;;;2.85;;
36321;SDS011;23564;48.290;11.460;2024-01-16T04:31:42;4.43;;;2.38;;
36321;SDS011;23564;48.290;11.460;2024-01-16T04:34:08;10.45;;;2.95;;
36321;SDS011;23564;48.290;11.460;2024-01-16T04:36:33;10.77;;;3.05;;
36321;SDS011;23564;48.290;11.460;2024-01-16T04:38:59;4.82;;;2.65;;
36321;SDS011;23564;48.290;11.460;2024-01-16T04:41:24;7.55;;;3.15;;
36321;SDS011;23564;48.290;11.460;2024-01-16T04:43:50;5.72;;;2.97;;
36321;SDS011;23564;48.290;11.460;2024-01-16T04:46:15;7.60;;;3.97;;
36321;SDS011;23564;48.290;11.460;2024-01-16T04:48:41;5.30;;;2.92;;
36321;SDS011;23564;48.290;11.460;2024-01-16T04:51:07;6.05;;;3.03;;
36321;SDS011;23564;48.290;11.460;2024-01-16T04:53:33;9.73;;;3.55;;
36321;SDS011;23564;48.290;11.460;2024-01-16T04:55:59;6.70;;;2.70;;
36321;SDS011;23564;48.290;11.460;2024-01-16T04:58:24;7.00;;;3.20;;
36321;SDS011;23564;48.290;11.460;2024-01-16T05:00:50;5.57;;;2.97;;
36321;SDS011;23564;48.290;11.460;2024-01-16T05:03:16;8.88;;;3.70;;
36321;SDS011;23564;48.290;11.460;2024-01-16T05:05:41;9.10;;;2.58;;
36321;SDS011;23564;48.290;11.460;2024-01-16T05:08:07;5.55;;;3.13;;
36321;SDS011;23564;48.290;11.460;2024-01-16T05:10:33;8.57;;;3.30;;
36321;SDS011;23564;48.290;11.460;2024-01-16T05:12:58;6.10;;;2.83;;
36321;SDS011;23564;48.290;11.460;2024-01-16T05:15:24;9.95;;;3.13;;
36321;SDS011;23564;48.290;11.460;2024-01-16T05:17:50;9.18;;;3.28;;
36321;SDS011;23564;48.290;11.460;2024-01-16T05:20:15;5.88;;;2.67;;
36321;SDS011;23564;48.290;11.460;2024-01-16T05:22:41;5.80;;;3.08;;
36321;SDS011;23564;48.290;11.460;2024-01-16T05:25:07;5.07;;;2.95;;
36321;SDS011;23564;48.290;11.460;2024-01-16T05:27:33;7.90;;;3.28;;
36321;SDS011;23564;48.290;11.460;2024-01-16T05:29:59;5.00;;;2.83;;
36321;SDS011;23564;48.290;11.460;2024-01-16T05:32:25;5.90;;;3.17;;
36321;SDS011;23564;48.290;11.460;2024-01-16T05:34:51;7.40;;;3.38;;
36321;SDS011;23564;48.290;11.460;2024-01-16T05:37:17;7.72;;;3.75;;
36321;SDS011;23564;48.290;11.460;2024-01-16T05:39:43;4.93;;;2.97;;
36321;SDS011;23564;48.290;11.460;2024-01-16T05:42:09;5.63;;;2.65;;
36321;SDS011;23564;48.290;11.460;2024-01-16T05:44:36;6.53;;;3.25;;
36321;SDS011;23564;48.290;11.460;2024-01-16T05:47:02;6.95;;;3.25;;
36321;SDS011;23564;48.290;11.460;2024-01-16T05:49:29;6.72;;;3.08;;
36321;SDS011;23564;48.290;11.460;2024-01-16T05:51:54;5.07;;;3.10;;
36321;SDS011;23564;48.290;11.460;2024-01-16T05:54:20;3.33;;;2.13;;
36321;SDS011;23564;48.290;11.460;2024-01-16T05:56:45;6.47;;;2.65;;
36321;SDS011;23564;48.290;11.460;2024-01-16T05:59:11;6.78;;;2.65;;
36321;SDS011;23564;48.290;11.460;2024-01-16T06:01:37;4.00;;;2.40;;
36321;SDS011;23564;48.290;11.460;2024-01-16T06:04:03;4.15;;;2.75;;
36321;SDS011;23564;48.290;11.460;2024-01-16T06:06:28;4.85;;;2.45;;
36321;SDS011;23564;48.290;11.460;2024-01-16T06:08:54;5.65;;;3.03;;
36321;SDS011;23564;48.290;11.460;2024-01-16T06:11:33;5.45;;;2.92;;
36321;SDS011;23564;48.290;11.460;2024-01-16T06:13:59;9.00;;;2.92;;
36321;SDS011;23564;48.290;11.460;2024-01-16T06:16:25;7.97;;;5.00;;
36321;SDS011;23564;48.290;11.460;2024-01-16T06:18:51;7.90;;;3.30;;
36321;SDS011;23564;48.290;11.460;2024-01-16T06:21:17;10.07;;;4.15;;
36321;SDS011;23564;48.290;11.460;2024-01-16T06:23:43;7.65;;;3.88;;
36321;SDS011;23564;48.290;11.460;2024-01-16T06:26:09;10.07;;;4.15;;
36321;SDS011;23564;48.290;11.460;2024-01-16T06:28:34;12.13;;;3.55;;
36321;SDS011;23564;48.290;11.460;2024-01-16T06:31:00;6.28;;;3.20;;
36321;SDS011;23564;48.290;11.460;2024-01-16T06:33:26;6.35;;;2.90;;
36321;SDS011;23564;48.290;11.460;2024-01-16T06:35:51;9.57;;;2.72;;
36321;SDS011;23564;48.290;11.460;2024-01-16T06:38:19;4.28;;;2.63;;
36321;SDS011;23564;48.290;11.460;2024-01-16T06:40:45;6.88;;;3.15;;
36321;SDS011;23564;48.290;11.460;2024-01-16T06:43:11;4.13;;;2.60;;
36321;SDS011;23564;48.290;11.460;2024-01-16T06:45:41;7.95;;;3.40;;
36321;SDS011;23564;48.290;11.460;2024-01-16T06:48:07;5.68;;;3.15;;
36321;SDS011;23564;48.290;11.460;2024-01-16T06:50:33;7.70;;;2.80;;
36321;SDS011;23564;48.290;11.460;2024-01-16T06:52:58;6.88;;;2.67;;
36321;SDS011;23564;48.290;11.460;2024-01-16T06:55:24;4.88;;;2.95;;
36321;SDS011;23564;48.290;11.460;2024-01-16T06:57:50;7.05;;;3.10;;
36321;SDS011;23564;48.290;11.460;2024-01-16T07:00:15;6.10;;;2.72;;
36321;SDS011;23564;48.290;11.460;2024-01-16T07:02:41;5.05;;;2.63;;
36321;SDS011;23564;48.290;11.460;2024-01-16T07:05:11;7.82;;;3.22;;
36321;SDS011;23564;48.290;11.460;2024-01-16T07:07:37;4.63;;;2.42;;
36321;SDS011;23564;48.290;11.460;2024-01-16T07:10:02;11.35;;;2.88;;
36321;SDS011;23564;48.290;11.460;2024-01-16T07:12:28;6.07;;;2.67;;
36321;SDS011;23564;48.290;11.460;2024-01-16T07:14:54;6.75;;;2.90;;
36321;SDS011;23564;48.290;11.460;2024-01-16T07:17:19;4.05;;;2.47;;
36321;SDS011;23564;48.290;11.460;2024-01-16T07:19:45;9.38;;;2.85;;
36321;SDS011;23564;48.290;11.460;2024-01-16T07:22:11;8.05;;;3.20;;
36321;SDS011;23564;48.290;11.460;2024-01-16T07:24:36;6.85;;;3.00;;
36321;SDS011;23564;48.290;11.460;2024-01-16T07:27:02;6.10;;;3.10;;
36321;SDS011;23564;48.290;11.460;2024-01-16T07:29:27;8.02;;;3.63;;
36321;SDS011;23564;48.290;11.460;2024-01-16T07:31:53;7.18;;;3.45;;
36321;SDS011;23564;48.290;11.460;2024-01-16T07:34:19;5.70;;;3.30;;
36321;SDS011;23564;48.290;11.460;2024-01-16T07:36:47;8.25;;;3.50;;
36321;SDS011;23564;48.290;11.460;2024-01-16T07:39:16;8.38;;;4.20;;
36321;SDS011;23564;48.290;11.460;2024-01-16T07:41:41;9.98;;;3.63;;
36321;SDS011;23564;48.290;11.460;2024-01-16T07:44:07;11.90;;;4.07;;
36321;SDS011;23564;48.290;11.460;2024-01-16T07:46:33;6.25;;;3.33;;
36321;SDS011;23564;48.290;11.460;2024-01-16T07:48:59;9.07;;;3.60;;
36321;SDS011;23564;48.290;11.460;2024-01-16T07:51:25;13.40;;;4.68;;
36321;SDS011;23564;48.290;11.460;2024-01-16T07:53:57;13.00;;;4.43;;
36321;SDS011;23564;48.290;11.460;2024-01-16T07:56:31;9.60;;;3.97;;
36321;SDS011;23564;48.290;11.460;2024-01-16T07:58:57;11.57;;;4.40;;
36321;SDS011;23564;48.290;11.460;2024-01-16T08:01:22;15.13;;;4.10;;
36321;SDS011;23564;48.290;11.460;2024-01-16T08:03:48;11.38;;;4.03;;
36321;SDS011;23564;48.290;11.460;2024-01-16T08:06:13;10.90;;;4.05;;
36321;SDS011;23564;48.290;11.460;2024-01-16T08:08:39;8.90;;;3.80;;
36321;SDS011;23564;48.290;11.460;2024-01-16T08:11:05;10.15;;;4.30;;
36321;SDS011;23564;48.290;11.460;2024-01-16T08:13:30;7.93;;;3.92;;
36321;SDS011;23564;48.290;11.460;2024-01-16T08:15:56;9.40;;;4.38;;
36321;SDS011;23564;48.290;11.460;2024-01-16T08:18:21;11.07;;;4.05;;
36321;SDS011;23564;48.290;11.460;2024-01-16T08:20:47;5.75;;;3.78;;
36321;SDS011;23564;48.290;11.460;2024-01-16T08:23:12;13.13;;;4.40;;
36321;SDS011;23564;48.290;11.460;2024-01-16T08:25:38;14.55;;;4.03;;
36321;SDS011;23564;48.290;11.460;2024-01-16T08:28:03;6.70;;;3.70;;
36321;SDS011;23564;48.290;11.460;2024-01-16T08:30:30;7.45;;;3.33;;
36321;SDS011;23564;48.290;11.460;2024-01-16T08:32:55;9.25;;;3.47;;
36321;SDS011;23564;48.290;11.460;2024-01-16T08:35:21;9.95;;;3.78;;
36321;SDS011;23564;48.290;11.460;2024-01-16T08:37:47;9.27;;;3.88;;
36321;SDS011;23564;48.290;11.460;2024-01-16T08:40:13;8.07;;;3.40;;
36321;SDS011;23564;48.290;11.460;2024-01-16T08:42:38;11.25;;;3.38;;
36321;SDS011;23564;48.290;11.460;2024-01-16T08:45:04;6.60;;;3.40;;
36321;SDS011;23564;48.290;11.460;2024-01-16T08:47:30;10.52;;;3.63;;
36321;SDS011;23564;48.290;11.460;2024-01-16T08:49:56;14.82;;;4.00;;
36321;SDS011;23564;48.290;11.460;2024-01-16T08:52:22;9.50;;;4.07;;
36321;SDS011;23564;48.290;11.460;2024-01-16T08:54:48;9.77;;;4.15;;
36321;SDS011;23564;48.290;11.460;2024-01-16T08:57:16;12.20;;;4.32;;
36321;SDS011;23564;48.290;11.460;2024-01-16T08:59:42;9.65;;;4.50;;
36321;SDS011;23564;48.290;11.460;2024-01-16T09:02:07;8.82;;;3.88;;
36321;SDS011;23564;48.290;11.460;2024-01-16T09:04:33;10.93;;;3.80;;
36321;SDS011;23564;48.290;11.460;2024-01-16T09:06:59;11.35;;;4.28;;
36321;SDS011;23564;48.290;11.460;2024-01-16T09:09:25;7.70;;;3.95;;
36321;SDS011;23564;48.290;11.460;2024-01-16T09:11:50;7.88;;;3.55;;
36321;SDS011;23564;48.290;11.460;2024-01-16T09:14:16;9.77;;;3.50;;
36321;SDS011;23564;48.290;11.460;2024-01-16T09:16:42;9.43;;;3.80;;
36321;SDS011;23564;48.290;11.460;2024-01-16T09:19:08;9.90;;;3.65;;
36321;SDS011;23564;48.290;11.460;2024-01-16T09:21:34;7.35;;;3.00;;
36321;SDS011;23564;48.290;11.460;2024-01-16T09:24:12;13.93;;;3.65;;
36321;SDS011;23564;48.290;11.460;2024-01-16T09:26:38;9.50;;;3.83;;
36321;SDS011;23564;48.290;11.460;2024-01-16T09:29:03;6.53;;;3.15;;
36321;SDS011;23564;48.290;11.460;2024-01-16T09:31:36;9.38;;;4.32;;
36321;SDS011;23564;48.290;11.460;2024-01-16T09:34:08;10.43;;;4.15;;
36321;SDS011;23564;48.290;11.460;2024-01-16T09:36:40;10.85;;;3.20;;
36321;SDS011;23564;48.290;11.460;2024-01-16T09:39:06;11.68;;;3.70;;
36321;SDS011;23564;48.290;11.460;2024-01-16T09:41:45;7.00;;;3.40;;
36321;SDS011;23564;48.290;11.460;2024-01-16T09:44:10;8.07;;;3.60;;
36321;SDS011;23564;48.290;11.460;2024-01-16T09:46:37;9.57;;;3.83;;
36321;SDS011;23564;48.290;11.460;2024-01-16T09:49:04;8.93;;;4.05;;
36321;SDS011;23564;48.290;11.460;2024-01-16T09:51:30;10.77;;;4.57;;
36321;SDS011;23564;48.290;11.460;2024-01-16T09:54:00;8.48;;;4.32;;
36321;SDS011;23564;48.290;11.460;2024-01-16T09:56:30;5.60;;;3.08;;
36321;SDS011;23564;48.290;11.460;2024-01-16T09:58:58;12.98;;;3.70;;
36321;SDS011;23564;48.290;11.460;2024-01-16T10:01:30;9.23;;;3.90;;
36321;SDS011;23564;48.290;11.460;2024-01-16T10:03:58;6.43;;;3.08;;
36321;SDS011;23564;48.290;11.460;2024-01-16T10:06:24;8.93;;;3.33;;
36321;SDS011;23564;48.290;11.460;2024-01-16T10:08:52;8.52;;;4.32;;
36321;SDS011;23564;48.290;11.460;2024-01-16T10:11:18;7.97;;;4.22;;
36321;SDS011;23564;48.290;11.460;2024-01-16T10:13:44;8.63;;;4.03;;
36321;SDS011;23564;48.290;11.460;2024-01-16T10:16:09;8.35;;;3.80;;
36321;SDS011;23564;48.290;11.460;2024-01-16T10:18:38;18.48;;;3.90;;
36321;SDS011;23564;48.290;11.460;2024-01-16T10:21:04;11.43;;;4.22;;
36321;SDS011;23564;48.290;11.460;2024-01-16T10:23:30;9.00;;;4.07;;
36321;SDS011;23564;48.290;11.460;2024-01-16T10:26:07;10.63;;;4.15;;
36321;SDS011;23564;48.290;11.460;2024-01-16T10:28:35;12.70;;;4.43;;
36321;SDS011;23564;48.290;11.460;2024-01-16T10:31:02;8.68;;;3.75;;
36321;SDS011;23564;48.290;11.460;2024-01-16T10:33:28;10.60;;;3.50;;
36321;SDS011;23564;48.290;11.460;2024-01-16T10:38:42;11.10;;;3.45;;
36321;SDS011;23564;48.290;11.460;2024-01-16T10:41:14;8.85;;;3.83;;
36321;SDS011;23564;48.290;11.460;2024-01-16T10:43:44;8.55;;;4.03;;
36321;SDS011;23564;48.290;11.460;2024-01-16T10:46:13;13.02;;;4.30;;
36321;SDS011;23564;48.290;11.460;2024-01-16T10:49:02;6.72;;;3.40;;
36321;SDS011;23564;48.290;11.460;2024-01-16T10:51:29;9.88;;;3.65;;
36321;SDS011;23564;48.290;11.460;2024-01-16T10:54:38;9.95;;;3.92;;
36321;SDS011;23564;48.290;11.460;2024-01-16T10:56:47;9.50;;;3.60;;
36321;SDS011;23564;48.290;11.460;2024-01-16T10:59:18;8.30;;;3.55;;
36321;SDS011;23564;48.290;11.460;2024-01-16T11:01:58;7.78;;;3.05;;
36321;SDS011;23564;48.290;11.460;2024-01-16T11:04:26;8.23;;;4.07;;
36321;SDS011;23564;48.290;11.460;2024-01-16T11:06:53;9.38;;;3.85;;
36321;SDS011;23564;48.290;11.460;2024-01-16T11:09:20;6.80;;;3.25;;
36321;SDS011;23564;48.290;11.460;2024-01-16T11:11:46;8.05;;;3.80;;
36321;SDS011;23564;48.290;11.460;2024-01-16T11:14:15;13.20;;;3.40;;
36321;SDS011;23564;48.290;11.460;2024-01-16T11:16:42;6.80;;;3.40;;
36321;SDS011;23564;48.290;11.460;2024-01-16T11:19:08;8.27;;;4.38;;
36321;SDS011;23564;48.290;11.460;2024-01-16T11:21:35;15.38;;;4.40;;
36321;SDS011;23564;48.290;11.460;2024-01-16T11:24:03;12.75;;;4.78;;
36321;SDS011;23564;48.290;11.460;2024-01-16T11:26:30;9.68;;;4.40;;
36321;SDS011;23564;48.290;11.460;2024-01-16T11:28:57;11.38;;;4.78;;
36321;SDS011;23564;48.290;11.460;2024-01-16T11:31:30;10.88;;;6.50;;
36321;SDS011;23564;48.290;11.460;2024-01-16T11:33:57;10.38;;;4.78;;
36321;SDS011;23564;48.290;11.460;2024-01-16T11:39:20;10.30;;;4.75;;
36321;SDS011;23564;48.290;11.460;2024-01-16T11:41:48;7.68;;;3.80;;
36321;SDS011;23564;48.290;11.460;2024-01-16T11:47:02;11.30;;;4.35;;
36321;SDS011;23564;48.290;11.460;2024-01-16T11:49:29;8.95;;;3.80;;
36321;SDS011;23564;48.290;11.460;2024-01-16T11:51:58;7.95;;;3.55;;
36321;SDS011;23564;48.290;11.460;2024-01-16T11:54:24;9.90;;;4.32;;
36321;SDS011;23564;48.290;11.460;2024-01-16T12:02:14;10.10;;;4.18;;
36321;SDS011;23564;48.290;11.460;2024-01-16T12:04:51;12.95;;;5.20;;
36321;SDS011;23564;48.290;11.460;2024-01-16T12:07:21;9.05;;;4.55;;
36321;SDS011;23564;48.290;11.460;2024-01-16T12:09:47;19.02;;;6.07;;
36321;SDS011;23564;48.290;11.460;2024-01-16T12:12:14;9.50;;;4.13;;
36321;SDS011;23564;48.290;11.460;2024-01-16T12:14:50;9.20;;;3.60;;
36321;SDS011;23564;48.290;11.460;2024-01-16T12:17:18;10.35;;;4.15;;
36321;SDS011;23564;48.290;11.460;2024-01-16T12:19:45;7.68;;;4.00;;
36321;SDS011;23564;48.290;11.460;2024-01-16T12:22:14;11.35;;;3.30;;
36321;SDS011;23564;48.290;11.460;2024-01-16T12:24:43;13.00;;;5.45;;
36321;SDS011;23564;48.290;11.460;2024-01-16T12:27:10;13.23;;;5.00;;
36321;SDS011;23564;48.290;11.460;2024-01-16T12:29:36;9.80;;;3.90;;
36321;SDS011;23564;48.290;11.460;2024-01-16T12:32:08;12.90;;;4.72;;
36321;SDS011;23564;48.290;11.460;2024-01-16T12:34:43;13.88;;;5.43;;
36321;SDS011;23564;48.290;11.460;2024-01-16T12:37:11;12.73;;;4.72;;
36321;SDS011;23564;48.290;11.460;2024-01-16T12:39:37;16.52;;;5.15;;
36321;SDS011;23564;48.290;11.460;2024-01-16T12:42:04;10.50;;;5.25;;
36321;SDS011;23564;48.290;11.460;2024-01-16T12:44:30;8.90;;;4.72;;
36321;SDS011;23564;48.290;11.460;2024-01-16T12:46:56;11.63;;;4.97;;
36321;SDS011;23564;48.290;11.460;2024-01-16T12:49:23;10.90;;;4.07;;
36321;SDS011;23564;48.290;11.460;2024-01-16T12:51:49;8.07;;;4.28;;
36321;SDS011;23564;48.290;11.460;2024-01-16T12:54:16;9.68;;;4.32;;
36321;SDS011;23564;48.290;11.460;2024-01-16T12:56:43;7.47;;;3.60;;
36321;SDS011;23564;48.290;11.460;2024-01-16T12:59:13;12.48;;;4.47;;
36321;SDS011;23564;48.290;11.460;2024-01-16T13:01:39;10.73;;;4.28;;
36321;SDS011;23564;48.290;11.460;2024-01-16T13:04:09;10.75;;;3.67;;
36321;SDS011;23564;48.290;11.460;2024-01-16T13:06:35;6.95;;;3.83;;
36321;SDS011;23564;48.290;11.460;2024-01-16T13:09:08;7.70;;;3.70;;
36321;SDS011;23564;48.290;11.460;2024-01-16T13:11:54;7.00;;;3.83;;
36321;SDS011;23564;48.290;11.460;2024-01-16T13:14:21;10.02;;;5.38;;
36321;SDS011;23564;48.290;11.460;2024-01-16T13:16:47;10.48;;;5.40;;
36321;SDS011;23564;48.290;11.460;2024-01-16T13:19:17;11.18;;;6.68;;
36321;SDS011;23564;48.290;11.460;2024-01-16T13:21:43;12.27;;;4.35;;
36321;SDS011;23564;48.290;11.460;2024-01-16T13:24:09;8.50;;;4.43;;
36321;SDS011;23564;48.290;11.460;2024-01-16T13:26:35;8.10;;;3.90;;
36321;SDS011;23564;48.290;11.460;2024-01-16T13:29:02;13.00;;;4.97;;
36321;SDS011;23564;48.290;11.460;2024-01-16T13:31:28;9.43;;;4.10;;
36321;SDS011;23564;48.290;11.460;2024-01-16T13:33:54;10.93;;;4.43;;
36321;SDS011;23564;48.290;11.460;2024-01-16T13:36:21;13.20;;;4.28;;
36321;SDS011;23564;48.290;11.460;2024-01-16T13:38:47;11.90;;;3.95;;
36321;SDS011;23564;48.290;11.460;2024-01-16T13:41:14;11.32;;;4.30;;
36321;SDS011;23564;48.290;11.460;2024-01-16T13:43:39;8.60;;;4.13;;
36321;SDS011;23564;48.290;11.460;2024-01-16T13:46:05;11.02;;;4.22;;
36321;SDS011;23564;48.290;11.460;2024-01-16T13:48:33;9.70;;;4.28;;
36321;SDS011;23564;48.290;11.460;2024-01-16T13:50:59;11.98;;;5.45;;
36321;SDS011;23564;48.290;11.460;2024-01-16T13:53:25;14.05;;;5.65;;
36321;SDS011;23564;48.290;11.460;2024-01-16T13:55:50;17.13;;;5.93;;
36321;SDS011;23564;48.290;11.460;2024-01-16T13:58:16;15.32;;;6.47;;
36321;SDS011;23564;48.290;11.460;2024-01-16T14:00:43;8.25;;;4.70;;
36321;SDS011;23564;48.290;11.460;2024-01-16T14:03:09;16.45;;;4.45;;
36321;SDS011;23564;48.290;11.460;2024-01-16T14:05:34;11.52;;;3.17;;
36321;SDS011;23564;48.290;11.460;2024-01-16T14:08:01;7.53;;;3.30;;
36321;SDS011;23564;48.290;11.460;2024-01-16T14:10:27;14.43;;;4.05;;
36321;SDS011;23564;48.290;11.460;2024-01-16T14:12:52;10.38;;;3.40;;
36321;SDS011;23564;48.290;11.460;2024-01-16T14:15:19;7.05;;;3.03;;
36321;SDS011;23564;48.290;11.460;2024-01-16T14:17:52;8.80;;;2.60;;
36321;SDS011;23564;48.290;11.460;2024-01-16T14:20:19;6.50;;;2.55;;
36321;SDS011;23564;48.290;11.460;2024-01-16T14:22:48;4.97;;;1.95;;
36321;SDS011;23564;48.290;11.460;2024-01-16T14:25:21;5.50;;;2.75;;
36321;SDS011;23564;48.290;11.460;2024-01-16T14:28:00;6.40;;;2.95;;
36321;SDS011;23564;48.290;11.460;2024-01-16T14:30:34;9.68;;;2.55;;
36321;SDS011;23564;48.290;11.460;2024-01-16T14:33:00;8.23;;;2.10;;
36321;SDS011;23564;48.290;11.460;2024-01-16T14:35:26;2.97;;;1.63;;
36321;SDS011;23564;48.290;11.460;2024-01-16T14:37:52;5.43;;;2.20;;
36321;SDS011;23564;48.290;11.460;2024-01-16T14:40:19;5.40;;;2.08;;
36321;SDS011;23564;48.290;11.460;2024-01-16T14:42:51;4.30;;;2.28;;
36321;SDS011;23564;48.290;11.460;2024-01-16T14:45:24;5.53;;;1.33;;